EXS86YT EGNM-LFPG
Flight info
| Callsign | EXS86YT |
|---|---|
| Flight time | 1h 7m |
| Altitude | 29000 |
| Route | POL DCT MCT DCT LISTO P18 STAFA L8 HON UL612 WOD UM605 BIBAX |
| Aircraft | B738/M-SDE2E3FGHIRWXY/LB1 |
Departure
| Time | 2026-05-07 13:01 |
|---|---|
| Airport | Leeds Bradford Airport (EGNM) |
Arrival
| Time | 2026-05-07 14:09 |
|---|---|
| Airport | Charles de Gaulle International Airport (LFPG) |
| Time | Latitude | Longitude | Altitude | Speed | Heading |
|---|---|---|---|---|---|
| 2026-05-07 12:39 | 53.86879 | -1.65690 | 664 ft | 0 kts | 1° |
| 2026-05-07 12:52 | 53.86859 | -1.65690 | 664 ft | 4 kts | 1° |
| 2026-05-07 12:52 | 53.86835 | -1.65691 | 664 ft | 4 kts | 346° |
| 2026-05-07 12:52 | 53.86817 | -1.65670 | 659 ft | 4 kts | 285° |
| 2026-05-07 12:52 | 53.86815 | -1.65635 | 662 ft | 1 kts | 271° |
| 2026-05-07 12:53 | 53.86815 | -1.65629 | 663 ft | 0 kts | 271° |
| 2026-05-07 12:56 | 53.86815 | -1.65634 | 663 ft | 1 kts | 272° |
| 2026-05-07 12:56 | 53.86816 | -1.65665 | 663 ft | 4 kts | 272° |
| 2026-05-07 12:56 | 53.86816 | -1.65737 | 664 ft | 8 kts | 262° |
| 2026-05-07 12:56 | 53.86812 | -1.65843 | 664 ft | 11 kts | 271° |
| 2026-05-07 12:57 | 53.86814 | -1.65990 | 665 ft | 14 kts | 272° |
| 2026-05-07 12:57 | 53.86849 | -1.66142 | 666 ft | 15 kts | 318° |
| 2026-05-07 12:57 | 53.86924 | -1.66255 | 665 ft | 14 kts | 317° |
| 2026-05-07 12:57 | 53.86963 | -1.66340 | 668 ft | 14 kts | 300° |
| 2026-05-07 12:58 | 53.86993 | -1.66484 | 672 ft | 13 kts | 262° |
| 2026-05-07 12:58 | 53.86966 | -1.66624 | 672 ft | 13 kts | 295° |
| 2026-05-07 12:58 | 53.87052 | -1.66766 | 678 ft | 13 kts | 317° |
| 2026-05-07 12:58 | 53.87096 | -1.66833 | 680 ft | 13 kts | 317° |
| 2026-05-07 12:59 | 53.87184 | -1.66968 | 686 ft | 13 kts | 321° |
| 2026-05-07 12:59 | 53.87246 | -1.66998 | 687 ft | 16 kts | 0° |
| 2026-05-07 12:59 | 53.87372 | -1.66995 | 688 ft | 18 kts | 342° |
| 2026-05-07 12:59 | 53.87397 | -1.67107 | 690 ft | 0 kts | 246° |
| 2026-05-07 13:00 | 53.87397 | -1.67108 | 684 ft | 1 kts | 244° |
| 2026-05-07 13:00 | 53.87378 | -1.67148 | 688 ft | 9 kts | 226° |
| 2026-05-07 13:00 | 53.87312 | -1.67164 | 681 ft | 3 kts | 140° |
| 2026-05-07 13:00 | 53.87307 | -1.67156 | 681 ft | 2 kts | 139° |
| 2026-05-07 13:01 | 53.87264 | -1.67094 | 687 ft | 24 kts | 139° |
| 2026-05-07 13:01 | 53.86938 | -1.66592 | 671 ft | 100 kts | 137° |
| 2026-05-07 13:01 | 53.86273 | -1.65570 | 749 ft | 151 kts | 139° |
| 2026-05-07 13:01 | 53.85463 | -1.64353 | 1510 ft | 155 kts | 142° |
| 2026-05-07 13:02 | 53.84641 | -1.63139 | 2338 ft | 162 kts | 142° |
| 2026-05-07 13:02 | 53.83797 | -1.61873 | 3163 ft | 160 kts | 141° |
| 2026-05-07 13:02 | 53.82878 | -1.60683 | 3726 ft | 175 kts | 157° |
| 2026-05-07 13:02 | 53.81628 | -1.60133 | 4064 ft | 199 kts | 181° |
| 2026-05-07 13:03 | 53.80216 | -1.60689 | 4273 ft | 221 kts | 211° |
| 2026-05-07 13:03 | 53.79160 | -1.62594 | 4877 ft | 228 kts | 244° |
| 2026-05-07 13:03 | 53.78806 | -1.65236 | 5401 ft | 244 kts | 262° |
| 2026-05-07 13:03 | 53.78593 | -1.68192 | 6041 ft | 255 kts | 260° |
| 2026-05-07 13:04 | 53.78330 | -1.71179 | 6736 ft | 259 kts | 260° |
| 2026-05-07 13:04 | 53.78055 | -1.74234 | 7478 ft | 263 kts | 259° |
| 2026-05-07 13:04 | 53.77763 | -1.77314 | 8323 ft | 266 kts | 258° |
| 2026-05-07 13:04 | 53.77454 | -1.80432 | 9085 ft | 272 kts | 258° |
| 2026-05-07 13:05 | 53.77138 | -1.83579 | 9882 ft | 275 kts | 257° |
| 2026-05-07 13:05 | 53.76809 | -1.86827 | 10464 ft | 287 kts | 258° |
| 2026-05-07 13:05 | 53.76452 | -1.90312 | 10647 ft | 312 kts | 258° |
| 2026-05-07 13:05 | 53.76078 | -1.93979 | 11072 ft | 326 kts | 258° |
| 2026-05-07 13:06 | 53.75688 | -1.97794 | 11786 ft | 330 kts | 258° |
| 2026-05-07 13:06 | 53.75293 | -2.01644 | 12633 ft | 333 kts | 258° |
| 2026-05-07 13:06 | 53.74790 | -2.05478 | 13414 ft | 335 kts | 247° |
| 2026-05-07 13:06 | 53.73561 | -2.08796 | 14161 ft | 336 kts | 225° |
| 2026-05-07 13:07 | 53.71688 | -2.11179 | 14900 ft | 339 kts | 207° |
| 2026-05-07 13:07 | 53.69480 | -2.12485 | 15623 ft | 343 kts | 195° |
| 2026-05-07 13:07 | 53.67125 | -2.13460 | 16317 ft | 349 kts | 194° |
| 2026-05-07 13:07 | 53.64760 | -2.14390 | 17074 ft | 353 kts | 193° |
| 2026-05-07 13:08 | 53.62349 | -2.15338 | 17807 ft | 357 kts | 194° |
| 2026-05-07 13:08 | 53.59893 | -2.16317 | 18497 ft | 361 kts | 194° |
| 2026-05-07 13:08 | 53.57469 | -2.17297 | 19136 ft | 364 kts | 194° |
| 2026-05-07 13:08 | 53.54974 | -2.18313 | 19780 ft | 368 kts | 194° |
| 2026-05-07 13:09 | 53.52499 | -2.19327 | 20410 ft | 371 kts | 194° |
| 2026-05-07 13:09 | 53.49965 | -2.20366 | 21058 ft | 374 kts | 194° |
| 2026-05-07 13:09 | 53.47446 | -2.21400 | 21628 ft | 378 kts | 193° |
| 2026-05-07 13:09 | 53.44864 | -2.22458 | 22241 ft | 381 kts | 193° |
| 2026-05-07 13:10 | 53.42268 | -2.23520 | 22837 ft | 385 kts | 193° |
| 2026-05-07 13:10 | 53.39682 | -2.24576 | 23403 ft | 388 kts | 193° |
| 2026-05-07 13:10 | 53.37009 | -2.25484 | 23900 ft | 392 kts | 186° |
| 2026-05-07 13:10 | 53.34293 | -2.25678 | 24373 ft | 394 kts | 178° |
| 2026-05-07 13:11 | 53.31562 | -2.25127 | 24848 ft | 396 kts | 170° |
| 2026-05-07 13:11 | 53.28829 | -2.24274 | 25327 ft | 399 kts | 169° |
| 2026-05-07 13:11 | 53.26117 | -2.23417 | 25803 ft | 401 kts | 169° |
| 2026-05-07 13:11 | 53.23378 | -2.22574 | 26427 ft | 399 kts | 169° |
| 2026-05-07 13:12 | 53.20647 | -2.21759 | 27084 ft | 396 kts | 169° |
| 2026-05-07 13:12 | 53.17961 | -2.20970 | 27675 ft | 395 kts | 169° |
| 2026-05-07 13:12 | 53.15225 | -2.20222 | 28233 ft | 395 kts | 173° |
| 2026-05-07 13:12 | 53.12499 | -2.20060 | 28789 ft | 396 kts | 182° |
| 2026-05-07 13:13 | 53.09746 | -2.20515 | 29419 ft | 395 kts | 184° |
| 2026-05-07 13:13 | 53.07010 | -2.21006 | 30015 ft | 394 kts | 184° |
| 2026-05-07 13:13 | 53.04309 | -2.21456 | 30477 ft | 393 kts | 183° |
| 2026-05-07 13:13 | 53.01580 | -2.21886 | 30939 ft | 392 kts | 183° |
| 2026-05-07 13:14 | 52.96106 | -2.22735 | 31028 ft | 395 kts | 183° |
| 2026-05-07 13:14 | 52.90695 | -2.23583 | 31039 ft | 390 kts | 183° |
| 2026-05-07 13:15 | 52.87973 | -2.23686 | 31016 ft | 389 kts | 171° |
| 2026-05-07 13:15 | 52.85378 | -2.22708 | 31046 ft | 386 kts | 159° |
| 2026-05-07 13:15 | 52.82946 | -2.20798 | 31029 ft | 384 kts | 146° |
| 2026-05-07 13:15 | 52.80747 | -2.18272 | 31041 ft | 385 kts | 144° |
| 2026-05-07 13:16 | 52.76397 | -2.13125 | 31033 ft | 386 kts | 143° |
| 2026-05-07 13:16 | 52.72007 | -2.07975 | 31044 ft | 387 kts | 144° |
| 2026-05-07 13:17 | 52.67606 | -2.02873 | 31034 ft | 388 kts | 144° |
| 2026-05-07 13:17 | 52.63171 | -1.97762 | 31033 ft | 388 kts | 144° |
| 2026-05-07 13:18 | 52.58768 | -1.92704 | 31041 ft | 387 kts | 144° |
| 2026-05-07 13:18 | 52.54340 | -1.87630 | 31048 ft | 387 kts | 144° |
| 2026-05-07 13:19 | 52.49943 | -1.82603 | 31046 ft | 387 kts | 144° |
| 2026-05-07 13:19 | 52.45530 | -1.77570 | 31058 ft | 387 kts | 144° |
| 2026-05-07 13:20 | 52.41091 | -1.72518 | 31058 ft | 387 kts | 144° |
| 2026-05-07 13:20 | 52.36665 | -1.67496 | 31054 ft | 388 kts | 145° |
| 2026-05-07 13:21 | 52.31976 | -1.63165 | 31058 ft | 389 kts | 153° |
| 2026-05-07 13:21 | 52.27098 | -1.59276 | 31061 ft | 390 kts | 153° |
| 2026-05-07 13:22 | 52.22226 | -1.55352 | 31067 ft | 390 kts | 153° |
| 2026-05-07 13:22 | 52.17383 | -1.51410 | 31072 ft | 391 kts | 153° |
| 2026-05-07 13:23 | 52.12521 | -1.47448 | 31069 ft | 392 kts | 153° |
| 2026-05-07 13:23 | 52.07617 | -1.43465 | 31072 ft | 392 kts | 153° |
| 2026-05-07 13:24 | 52.02738 | -1.39498 | 31070 ft | 393 kts | 153° |
| 2026-05-07 13:24 | 51.97860 | -1.35532 | 31042 ft | 393 kts | 153° |
| 2026-05-07 13:25 | 51.92978 | -1.31591 | 31043 ft | 393 kts | 154° |
| 2026-05-07 13:25 | 51.88081 | -1.27654 | 31049 ft | 393 kts | 154° |
| 2026-05-07 13:26 | 51.83155 | -1.23700 | 31043 ft | 394 kts | 154° |
| 2026-05-07 13:26 | 51.78261 | -1.19781 | 31051 ft | 394 kts | 154° |
| 2026-05-07 13:27 | 51.73329 | -1.15838 | 31051 ft | 394 kts | 154° |
| 2026-05-07 13:27 | 51.68425 | -1.11927 | 31052 ft | 395 kts | 155° |
| 2026-05-07 13:28 | 51.63500 | -1.08011 | 31053 ft | 396 kts | 155° |
| 2026-05-07 13:28 | 51.58770 | -1.03465 | 31059 ft | 398 kts | 146° |
| 2026-05-07 13:29 | 51.54271 | -0.98180 | 31055 ft | 400 kts | 145° |
| 2026-05-07 13:29 | 51.49765 | -0.92977 | 31045 ft | 400 kts | 146° |
| 2026-05-07 13:30 | 51.45214 | -0.87776 | 31048 ft | 401 kts | 144° |
| 2026-05-07 13:30 | 51.41027 | -0.81853 | 31049 ft | 403 kts | 139° |
| 2026-05-07 13:31 | 51.36939 | -0.75707 | 31051 ft | 404 kts | 139° |
| 2026-05-07 13:31 | 51.32808 | -0.69557 | 31046 ft | 404 kts | 139° |
| 2026-05-07 13:32 | 51.28680 | -0.63485 | 31051 ft | 404 kts | 139° |
| 2026-05-07 13:32 | 51.24535 | -0.57428 | 31045 ft | 404 kts | 140° |
| 2026-05-07 13:33 | 51.20389 | -0.51389 | 31050 ft | 404 kts | 140° |
| 2026-05-07 13:33 | 51.16236 | -0.45355 | 31069 ft | 405 kts | 140° |
| 2026-05-07 13:34 | 51.09985 | -0.36301 | 31076 ft | 406 kts | 140° |
| 2026-05-07 13:35 | 51.05784 | -0.30235 | 31080 ft | 407 kts | 140° |
| 2026-05-07 13:35 | 51.01602 | -0.24212 | 31073 ft | 408 kts | 140° |
| 2026-05-07 13:36 | 50.97381 | -0.18148 | 31075 ft | 408 kts | 140° |
| 2026-05-07 13:36 | 50.93175 | -0.12121 | 31068 ft | 409 kts | 140° |
| 2026-05-07 13:37 | 50.88964 | -0.06101 | 31070 ft | 408 kts | 140° |
| 2026-05-07 13:37 | 50.84752 | -0.00095 | 31072 ft | 408 kts | 140° |
| 2026-05-07 13:38 | 50.80515 | 0.05933 | 31076 ft | 408 kts | 140° |
| 2026-05-07 13:38 | 50.76302 | 0.11911 | 31072 ft | 408 kts | 140° |
| 2026-05-07 13:39 | 50.71960 | 0.17631 | 31066 ft | 407 kts | 144° |
| 2026-05-07 13:39 | 50.67504 | 0.23204 | 31075 ft | 407 kts | 144° |
| 2026-05-07 13:40 | 50.63090 | 0.28786 | 31072 ft | 408 kts | 144° |
| 2026-05-07 13:40 | 50.58683 | 0.34382 | 31077 ft | 408 kts | 144° |
| 2026-05-07 13:41 | 50.54245 | 0.40024 | 31073 ft | 407 kts | 143° |
| 2026-05-07 13:41 | 50.49914 | 0.45532 | 31067 ft | 399 kts | 144° |
| 2026-05-07 13:42 | 50.45570 | 0.51032 | 31008 ft | 401 kts | 144° |
| 2026-05-07 13:42 | 50.43410 | 0.53757 | 30718 ft | 399 kts | 144° |
| 2026-05-07 13:42 | 50.41254 | 0.56478 | 30398 ft | 394 kts | 144° |
| 2026-05-07 13:42 | 50.39140 | 0.59143 | 30020 ft | 391 kts | 144° |
| 2026-05-07 13:43 | 50.37023 | 0.61807 | 29603 ft | 388 kts | 144° |
| 2026-05-07 13:43 | 50.34918 | 0.64453 | 29241 ft | 383 kts | 144° |
| 2026-05-07 13:43 | 50.32856 | 0.67046 | 28826 ft | 380 kts | 144° |
| 2026-05-07 13:43 | 50.30799 | 0.69634 | 28461 ft | 377 kts | 144° |
| 2026-05-07 13:44 | 50.28779 | 0.72172 | 28081 ft | 373 kts | 144° |
| 2026-05-07 13:44 | 50.26756 | 0.74712 | 27701 ft | 370 kts | 143° |
| 2026-05-07 13:44 | 50.24751 | 0.77227 | 27326 ft | 368 kts | 143° |
| 2026-05-07 13:44 | 50.22785 | 0.79691 | 26970 ft | 365 kts | 143° |
| 2026-05-07 13:45 | 50.20802 | 0.82171 | 26600 ft | 362 kts | 143° |
| 2026-05-07 13:45 | 50.18831 | 0.84634 | 26239 ft | 360 kts | 143° |
| 2026-05-07 13:45 | 50.16906 | 0.87032 | 25927 ft | 356 kts | 144° |
| 2026-05-07 13:45 | 50.14962 | 0.89446 | 25567 ft | 354 kts | 144° |
| 2026-05-07 13:46 | 50.13061 | 0.91805 | 25226 ft | 352 kts | 143° |
| 2026-05-07 13:46 | 50.11141 | 0.94186 | 24875 ft | 350 kts | 143° |
| 2026-05-07 13:46 | 50.09231 | 0.96553 | 24519 ft | 349 kts | 143° |
| 2026-05-07 13:46 | 50.07334 | 0.98901 | 24172 ft | 347 kts | 143° |
| 2026-05-07 13:47 | 50.05444 | 1.01149 | 23824 ft | 345 kts | 149° |
| 2026-05-07 13:47 | 50.03351 | 1.02932 | 23463 ft | 341 kts | 156° |
| 2026-05-07 13:47 | 50.01207 | 1.04516 | 23073 ft | 339 kts | 157° |
| 2026-05-07 13:47 | 49.99097 | 1.06034 | 22741 ft | 335 kts | 157° |
| 2026-05-07 13:48 | 49.96980 | 1.07562 | 22391 ft | 333 kts | 157° |
| 2026-05-07 13:48 | 49.94888 | 1.09088 | 22056 ft | 330 kts | 157° |
| 2026-05-07 13:48 | 49.93507 | 1.10104 | 21827 ft | 329 kts | 156° |
| 2026-05-07 13:48 | 49.90771 | 1.12129 | 21358 ft | 327 kts | 156° |
| 2026-05-07 13:49 | 49.88718 | 1.13657 | 21023 ft | 325 kts | 156° |
| 2026-05-07 13:49 | 49.86702 | 1.15159 | 20690 ft | 323 kts | 156° |
| 2026-05-07 13:49 | 49.84686 | 1.16664 | 20359 ft | 322 kts | 156° |
| 2026-05-07 13:49 | 49.82664 | 1.18174 | 20029 ft | 320 kts | 156° |
| 2026-05-07 13:50 | 49.80670 | 1.19661 | 19696 ft | 319 kts | 156° |
| 2026-05-07 13:50 | 49.79336 | 1.20656 | 19472 ft | 319 kts | 156° |
| 2026-05-07 13:50 | 49.76660 | 1.22651 | 19033 ft | 317 kts | 156° |
| 2026-05-07 13:50 | 49.75362 | 1.23617 | 18819 ft | 317 kts | 156° |
| 2026-05-07 13:51 | 49.73367 | 1.25102 | 18481 ft | 316 kts | 156° |
| 2026-05-07 13:51 | 49.71407 | 1.26681 | 18128 ft | 316 kts | 153° |
| 2026-05-07 13:51 | 49.69501 | 1.28374 | 17769 ft | 315 kts | 152° |
| 2026-05-07 13:51 | 49.67635 | 1.30056 | 17427 ft | 313 kts | 152° |
| 2026-05-07 13:52 | 49.65758 | 1.31752 | 17085 ft | 312 kts | 151° |
| 2026-05-07 13:52 | 49.63889 | 1.33440 | 16761 ft | 310 kts | 151° |
| 2026-05-07 13:52 | 49.62022 | 1.35123 | 16440 ft | 309 kts | 151° |
| 2026-05-07 13:52 | 49.60180 | 1.36781 | 16114 ft | 308 kts | 151° |
| 2026-05-07 13:53 | 49.58326 | 1.38446 | 15793 ft | 306 kts | 151° |
| 2026-05-07 13:53 | 49.56500 | 1.40082 | 15477 ft | 305 kts | 151° |
| 2026-05-07 13:53 | 49.54667 | 1.41721 | 15157 ft | 303 kts | 151° |
| 2026-05-07 13:53 | 49.52843 | 1.43347 | 14845 ft | 302 kts | 151° |
| 2026-05-07 13:54 | 49.50994 | 1.44989 | 14219 ft | 312 kts | 151° |
| 2026-05-07 13:54 | 49.49127 | 1.46640 | 13815 ft | 313 kts | 151° |
| 2026-05-07 13:54 | 49.47229 | 1.48312 | 13420 ft | 313 kts | 151° |
| 2026-05-07 13:54 | 49.45345 | 1.49967 | 13078 ft | 311 kts | 151° |
| 2026-05-07 13:55 | 49.43490 | 1.51596 | 12761 ft | 308 kts | 151° |
| 2026-05-07 13:55 | 49.41637 | 1.53218 | 12447 ft | 305 kts | 151° |
| 2026-05-07 13:55 | 49.39801 | 1.54823 | 12127 ft | 302 kts | 152° |
| 2026-05-07 13:55 | 49.37979 | 1.56413 | 11840 ft | 300 kts | 151° |
| 2026-05-07 13:56 | 49.36189 | 1.57971 | 11526 ft | 298 kts | 151° |
| 2026-05-07 13:56 | 49.34389 | 1.59534 | 11222 ft | 295 kts | 152° |
| 2026-05-07 13:56 | 49.32601 | 1.61082 | 10920 ft | 293 kts | 152° |
| 2026-05-07 13:56 | 49.30828 | 1.62616 | 10644 ft | 292 kts | 152° |
| 2026-05-07 13:57 | 49.29080 | 1.64123 | 10352 ft | 290 kts | 152° |
| 2026-05-07 13:57 | 49.27328 | 1.65630 | 10166 ft | 285 kts | 151° |
| 2026-05-07 13:57 | 49.25610 | 1.67102 | 10047 ft | 276 kts | 152° |
| 2026-05-07 13:57 | 49.23937 | 1.68534 | 9785 ft | 274 kts | 152° |
| 2026-05-07 13:58 | 49.22297 | 1.69937 | 9537 ft | 271 kts | 152° |
| 2026-05-07 13:58 | 49.20653 | 1.71339 | 9294 ft | 268 kts | 152° |
| 2026-05-07 13:58 | 49.19024 | 1.72728 | 9034 ft | 266 kts | 152° |
| 2026-05-07 13:58 | 49.17437 | 1.74080 | 8807 ft | 263 kts | 152° |
| 2026-05-07 13:59 | 49.15840 | 1.75441 | 8564 ft | 261 kts | 152° |
| 2026-05-07 13:59 | 49.14254 | 1.76794 | 8329 ft | 258 kts | 152° |
| 2026-05-07 13:59 | 49.12707 | 1.78112 | 8121 ft | 255 kts | 152° |
| 2026-05-07 13:59 | 49.11157 | 1.79431 | 7896 ft | 254 kts | 152° |
| 2026-05-07 14:00 | 49.09613 | 1.80742 | 7672 ft | 251 kts | 152° |
| 2026-05-07 14:00 | 49.08099 | 1.82021 | 7489 ft | 252 kts | 150° |
| 2026-05-07 14:00 | 49.06731 | 1.83727 | 7295 ft | 257 kts | 134° |
| 2026-05-07 14:00 | 49.05504 | 1.85778 | 7078 ft | 264 kts | 132° |
| 2026-05-07 14:01 | 49.04281 | 1.87876 | 6816 ft | 268 kts | 130° |
| 2026-05-07 14:01 | 49.03310 | 1.90278 | 6581 ft | 265 kts | 114° |
| 2026-05-07 14:01 | 49.02586 | 1.92862 | 6363 ft | 263 kts | 112° |
| 2026-05-07 14:01 | 49.01897 | 1.95412 | 6233 ft | 256 kts | 111° |
| 2026-05-07 14:02 | 49.01238 | 1.97859 | 6095 ft | 250 kts | 111° |
| 2026-05-07 14:02 | 49.00577 | 2.00323 | 5864 ft | 250 kts | 111° |
| 2026-05-07 14:02 | 48.99957 | 2.02807 | 5630 ft | 250 kts | 102° |
| 2026-05-07 14:02 | 48.99974 | 2.05392 | 5423 ft | 247 kts | 80° |
| 2026-05-07 14:03 | 49.00202 | 2.07984 | 5175 ft | 246 kts | 84° |
| 2026-05-07 14:03 | 49.00338 | 2.10556 | 4963 ft | 245 kts | 85° |
| 2026-05-07 14:03 | 49.00461 | 2.13148 | 4733 ft | 243 kts | 85° |
| 2026-05-07 14:03 | 49.00584 | 2.15724 | 4491 ft | 242 kts | 85° |
| 2026-05-07 14:04 | 49.00709 | 2.18242 | 4259 ft | 241 kts | 85° |
| 2026-05-07 14:04 | 49.00837 | 2.20788 | 4068 ft | 238 kts | 85° |
| 2026-05-07 14:04 | 49.00959 | 2.23228 | 3996 ft | 229 kts | 85° |
| 2026-05-07 14:04 | 49.01078 | 2.25619 | 3867 ft | 224 kts | 85° |
| 2026-05-07 14:05 | 49.01197 | 2.27958 | 3579 ft | 221 kts | 85° |
| 2026-05-07 14:05 | 49.01313 | 2.30235 | 3294 ft | 208 kts | 85° |
| 2026-05-07 14:05 | 49.01422 | 2.32366 | 3020 ft | 194 kts | 85° |
| 2026-05-07 14:05 | 49.01521 | 2.34303 | 2768 ft | 180 kts | 85° |
| 2026-05-07 14:06 | 49.01617 | 2.36165 | 2536 ft | 167 kts | 85° |
| 2026-05-07 14:06 | 49.01706 | 2.37874 | 2319 ft | 158 kts | 86° |
| 2026-05-07 14:06 | 49.01787 | 2.39469 | 2152 ft | 147 kts | 85° |
| 2026-05-07 14:06 | 49.01869 | 2.40998 | 1919 ft | 142 kts | 85° |
| 2026-05-07 14:07 | 49.01946 | 2.42506 | 1723 ft | 143 kts | 85° |
| 2026-05-07 14:07 | 49.02024 | 2.44003 | 1528 ft | 144 kts | 85° |
| 2026-05-07 14:07 | 49.02104 | 2.45519 | 1329 ft | 142 kts | 85° |
| 2026-05-07 14:07 | 49.02183 | 2.47023 | 1152 ft | 141 kts | 85° |
| 2026-05-07 14:08 | 49.02253 | 2.48518 | 968 ft | 142 kts | 85° |
| 2026-05-07 14:08 | 49.02326 | 2.50015 | 761 ft | 142 kts | 84° |
| 2026-05-07 14:08 | 49.02409 | 2.51485 | 557 ft | 137 kts | 83° |
| 2026-05-07 14:08 | 49.02496 | 2.52939 | 366 ft | 137 kts | 84° |
| 2026-05-07 14:09 | 49.02567 | 2.54252 | 361 ft | 105 kts | 85° |
| 2026-05-07 14:09 | 49.02606 | 2.55069 | 353 ft | 37 kts | 94° |
| 2026-05-07 14:09 | 49.02569 | 2.55280 | 355 ft | 17 kts | 112° |
| 2026-05-07 14:09 | 49.02522 | 2.55448 | 361 ft | 17 kts | 115° |
| 2026-05-07 14:10 | 49.02462 | 2.55593 | 354 ft | 16 kts | 148° |
| 2026-05-07 14:10 | 49.02352 | 2.55620 | 354 ft | 16 kts | 175° |
| 2026-05-07 14:10 | 49.02246 | 2.55633 | 354 ft | 15 kts | 175° |
| 2026-05-07 14:10 | 49.02143 | 2.55645 | 357 ft | 14 kts | 175° |
| 2026-05-07 14:11 | 49.02070 | 2.55568 | 355 ft | 14 kts | 252° |
| 2026-05-07 14:11 | 49.02059 | 2.55424 | 354 ft | 13 kts | 265° |
| 2026-05-07 14:11 | 49.02050 | 2.55281 | 354 ft | 15 kts | 265° |
| 2026-05-07 14:11 | 49.02042 | 2.55110 | 356 ft | 18 kts | 265° |
| 2026-05-07 14:12 | 49.02032 | 2.54903 | 359 ft | 21 kts | 266° |
| 2026-05-07 14:12 | 49.02020 | 2.54664 | 354 ft | 24 kts | 264° |
| 2026-05-07 14:12 | 49.02005 | 2.54398 | 360 ft | 25 kts | 265° |
| 2026-05-07 14:12 | 49.01964 | 2.54157 | 361 ft | 23 kts | 220° |
| 2026-05-07 14:13 | 49.01819 | 2.54106 | 360 ft | 17 kts | 226° |
| 2026-05-07 14:13 | 49.01744 | 2.53988 | 356 ft | 9 kts | 216° |
| 2026-05-07 14:13 | 49.01702 | 2.53940 | 362 ft | 7 kts | 221° |
| 2026-05-07 14:13 | 49.01660 | 2.53909 | 355 ft | 3 kts | 194° |
| 2026-05-07 14:14 | 49.01654 | 2.53907 | 358 ft | 0 kts | 194° |